Time,TemperatureF,DewpointF,PressureIn,WindDirection,WindDirectionDegrees,WindSpeedMPH,WindSpeedGustMPH,Humidity,HourlyPrecipIn,Conditions,Clouds,dailyrainin,SoftwareType,DateUTC
2013-04-13 00:03:00,67.0,66.0,29.78,South,172,0.0,-999.0,98,-99.99,,,-99.99,,2013-04-13 04:03:00,
2013-04-13 00:12:00,67.0,66.0,29.78,South,172,0.0,-999.0,98,-99.99,,,-99.99,,2013-04-13 04:12:00,
2013-04-13 00:23:00,66.0,65.0,29.78,South,175,0.0,-999.0,98,-99.99,,,-99.99,,2013-04-13 04:23:00,
2013-04-13 00:33:00,65.0,64.0,29.78,South,175,0.0,-999.0,98,-99.99,,,-99.99,,2013-04-13 04:33:00,
2013-04-13 00:42:00,65.0,64.0,29.78,South,175,0.0,-999.0,98,-99.99,,,-99.99,,2013-04-13 04:42:00,
2013-04-13 00:53:00,64.0,63.0,29.78,South,175,0.0,-999.0,98,-99.99,,,-99.99,,2013-04-13 04:53:00,
2013-04-13 01:03:00,62.0,61.0,29.79,South,178,0.0,-999.0,98,-99.99,,,-99.99,,2013-04-13 05:03:00,
2013-04-13 01:12:00,62.0,61.0,29.79,South,178,0.0,-999.0,98,-99.99,,,-99.99,,2013-04-13 05:12:00,
2013-04-13 01:22:00,60.0,59.0,29.79,South,178,0.0,-999.0,98,-99.99,,,-99.99,,2013-04-13 05:22:00,
2013-04-13 01:32:00,59.0,58.0,29.79,South,178,0.0,-999.0,98,-99.99,,,-99.99,,2013-04-13 05:32:00,
2013-04-13 01:43:00,59.0,58.0,29.79,South,178,0.0,-999.0,98,-99.99,,,-99.99,,2013-04-13 05:43:00,
2013-04-13 01:52:00,59.0,58.0,29.79,South,178,0.0,-999.0,98,-99.99,,,-99.99,,2013-04-13 05:52:00,
2013-04-13 02:02:00,59.0,58.0,29.80,South,178,0.0,-999.0,98,-99.99,,,-99.99,,2013-04-13 06:02:00,
2013-04-13 02:12:00,59.0,58.0,29.80,South,178,0.0,-999.0,98,-99.99,,,-99.99,,2013-04-13 06:12:00,
2013-04-13 02:24:00,58.0,57.0,29.80,South,178,0.0,-999.0,98,-99.99,,,-99.99,,2013-04-13 06:24:00,
2013-04-13 02:35:00,58.0,57.0,29.80,South,178,0.0,-999.0,98,-99.99,,,-99.99,,2013-04-13 06:35:00,
2013-04-13 02:53:00,58.0,57.0,29.81,South,178,0.0,-999.0,98,-99.99,,,-99.99,,2013-04-13 06:53:00,
2013-04-13 03:07:00,57.0,56.0,29.80,South,178,0.0,-999.0,97,-99.99,,,-99.99,,2013-04-13 07:07:00,
2013-04-13 03:15:00,57.0,56.0,29.80,South,178,0.0,-999.0,97,-99.99,,,-99.99,,2013-04-13 07:15:00,
2013-04-13 03:24:00,57.0,56.0,29.80,South,178,0.0,-999.0,98,-99.99,,,-99.99,,2013-04-13 07:24:00,
2013-04-13 03:35:00,56.0,55.0,29.80,South,178,0.0,-999.0,98,-99.99,,,-99.99,,2013-04-13 07:35:00,
2013-04-13 03:45:00,56.0,55.0,29.80,South,178,0.0,-999.0,98,-99.99,,,-99.99,,2013-04-13 07:45:00,
2013-04-13 03:54:00,56.0,55.0,29.80,South,178,0.0,-999.0,97,-99.99,,,-99.99,,2013-04-13 07:54:00,
2013-04-13 04:07:00,55.0,54.0,29.81,South,178,0.0,-999.0,97,-99.99,,,-99.99,,2013-04-13 08:07:00,
2013-04-13 04:15:00,55.0,54.0,29.81,South,178,0.0,-999.0,97,-99.99,,,-99.99,,2013-04-13 08:15:00,
2013-04-13 04:25:00,54.0,53.0,29.81,South,178,0.0,-999.0,97,-99.99,,,-99.99,,2013-04-13 08:25:00,
2013-04-13 04:35:00,54.0,54.0,29.81,South,178,0.0,-999.0,100,-99.99,,,-99.99,,2013-04-13 08:35:00,
2013-04-13 04:45:00,54.0,54.0,29.81,South,178,0.0,-999.0,100,-99.99,,,-99.99,,2013-04-13 08:45:00,
2013-04-13 04:53:00,54.0,53.0,29.82,South,178,0.0,-999.0,98,-99.99,,,-99.99,,2013-04-13 08:53:00,
2013-04-13 05:05:00,53.0,52.0,29.83,South,178,0.0,-999.0,97,-99.99,,,-99.99,,2013-04-13 09:05:00,
2013-04-13 05:14:00,53.0,52.0,29.83,South,178,0.0,-999.0,97,-99.99,,,-99.99,,2013-04-13 09:14:00,
2013-04-13 05:24:00,53.0,52.0,29.83,South,178,0.0,-999.0,97,-99.99,,,-99.99,,2013-04-13 09:24:00,
2013-04-13 05:37:00,53.0,52.0,29.83,South,178,0.0,-999.0,97,-99.99,,,-99.99,,2013-04-13 09:37:00,
2013-04-13 05:50:00,53.0,52.0,29.83,South,178,0.0,-999.0,97,-99.99,,,-99.99,,2013-04-13 09:50:00,
2013-04-13 06:05:00,52.0,51.0,29.84,South,178,0.0,-999.0,98,-99.99,,,-99.99,,2013-04-13 10:05:00,
2013-04-13 06:15:00,51.0,50.0,29.85,South,178,0.0,-999.0,97,-99.99,,,-99.99,,2013-04-13 10:15:00,
2013-04-13 06:24:00,51.0,50.0,29.85,South,178,0.0,-999.0,97,-99.99,,,-99.99,,2013-04-13 10:24:00,
2013-04-13 06:37:00,51.0,50.0,29.85,South,178,0.0,-999.0,97,-99.99,,,-99.99,,2013-04-13 10:37:00,
2013-04-13 06:46:00,51.0,50.0,29.85,South,178,0.0,-999.0,97,-99.99,,,-99.99,,2013-04-13 10:46:00,
2013-04-13 06:54:00,51.0,50.0,29.85,South,178,0.0,-999.0,97,-99.99,,,-99.99,,2013-04-13 10:54:00,
2013-04-13 07:07:00,50.0,49.0,29.86,SSE,153,0.0,-999.0,97,-99.99,,,-99.99,,2013-04-13 11:07:00,
2013-04-13 07:13:00,50.0,49.0,29.86,SSE,153,0.0,-999.0,97,-99.99,,,-99.99,,2013-04-13 11:13:00,
2013-04-13 07:24:00,50.0,49.0,29.87,SSE,153,0.0,-999.0,97,-99.99,,,-99.99,,2013-04-13 11:24:00,
2013-04-13 07:34:00,50.0,49.0,29.88,SSE,152,0.0,-999.0,97,-99.99,,,-99.99,,2013-04-13 11:34:00,
2013-04-13 07:45:00,50.0,49.0,29.88,SSE,152,0.0,-999.0,97,-99.99,,,-99.99,,2013-04-13 11:45:00,
2013-04-13 07:53:00,50.0,49.0,29.88,SSE,152,0.0,-999.0,97,-99.99,,,-99.99,,2013-04-13 11:53:00,
2013-04-13 08:08:00,51.0,50.0,29.89,SSE,149,0.0,-999.0,98,-99.99,,,-99.99,,2013-04-13 12:08:00,
2013-04-13 08:15:00,51.0,50.0,29.89,SSE,149,0.0,-999.0,98,-99.99,,,-99.99,,2013-04-13 12:15:00,
2013-04-13 08:25:00,51.0,50.0,29.89,SSE,149,0.0,-999.0,98,-99.99,,,-99.99,,2013-04-13 12:25:00,
2013-04-13 08:47:00,52.0,51.0,29.90,SSE,149,0.0,-999.0,98,-99.99,,,-99.99,,2013-04-13 12:47:00,
2013-04-13 08:54:00,53.0,52.0,29.91,East,99,0.0,-999.0,98,-99.99,,,-99.99,,2013-04-13 12:54:00,
2013-04-13 09:08:00,54.0,53.0,29.91,NE,41,0.0,-999.0,97,-99.99,,,-99.99,,2013-04-13 13:08:00,
2013-04-13 09:15:00,54.0,53.0,29.91,NE,41,0.0,-999.0,97,-99.99,,,-99.99,,2013-04-13 13:15:00,
2013-04-13 09:29:00,55.0,53.0,29.91,West,268,0.0,-999.0,94,-99.99,,,-99.99,,2013-04-13 13:29:00,
2013-04-13 09:35:00,56.0,53.0,29.91,WNW,283,0.0,-999.0,91,-99.99,,,-99.99,,2013-04-13 13:35:00,
2013-04-13 09:47:00,56.0,53.0,29.91,WNW,283,0.0,-999.0,91,-99.99,,,-99.99,,2013-04-13 13:47:00,
2013-04-13 09:54:00,58.0,55.0,29.91,WNW,285,0.0,-999.0,89,-99.99,,,-99.99,,2013-04-13 13:54:00,
2013-04-13 10:05:00,59.0,54.0,29.91,WNW,297,0.0,-999.0,85,-99.99,,,-99.99,,2013-04-13 14:05:00,
2013-04-13 10:14:00,59.0,54.0,29.91,WNW,297,0.0,-999.0,85,-99.99,,,-99.99,,2013-04-13 14:14:00,
2013-04-13 10:24:00,60.0,54.0,29.92,WNW,296,0.0,-999.0,82,-99.99,,,-99.99,,2013-04-13 14:24:00,
2013-04-13 10:39:00,62.0,55.0,29.92,WNW,291,0.0,-999.0,77,-99.99,,,-99.99,,2013-04-13 14:39:00,
2013-04-13 10:46:00,62.0,55.0,29.92,WNW,291,0.0,-999.0,77,-99.99,,,-99.99,,2013-04-13 14:46:00,
2013-04-13 10:55:00,64.0,56.0,29.92,WNW,297,1.0,-999.0,74,-99.99,,,-99.99,,2013-04-13 14:55:00,
2013-04-13 11:05:00,66.0,57.0,29.92,WNW,300,0.0,-999.0,73,-99.99,,,-99.99,,2013-04-13 15:05:00,
2013-04-13 11:14:00,66.0,57.0,29.92,WNW,300,0.0,-999.0,73,-99.99,,,-99.99,,2013-04-13 15:14:00,
2013-04-13 11:29:00,67.0,54.0,29.92,WNW,288,1.0,-999.0,63,-99.99,,,-99.99,,2013-04-13 15:29:00,
2013-04-13 11:37:00,68.0,54.0,29.93,NW,309,1.0,-999.0,60,-99.99,,,-99.99,,2013-04-13 15:37:00,
2013-04-13 11:44:00,68.0,54.0,29.93,NW,309,1.0,-999.0,60,-99.99,,,-99.99,,2013-04-13 15:44:00,
2013-04-13 11:55:00,69.0,55.0,29.93,West,276,1.0,-999.0,61,-99.99,,,-99.99,,2013-04-13 15:55:00,
2013-04-13 12:15:00,70.0,55.0,29.93,NW,315,1.0,-999.0,58,-99.99,,,-99.99,,2013-04-13 16:15:00,
2013-04-13 12:25:00,71.0,57.0,29.93,NNE,22,0.0,-999.0,61,-99.99,,,-99.99,,2013-04-13 16:25:00,
2013-04-13 12:36:00,71.0,53.0,29.93,WNW,298,0.0,-999.0,53,-99.99,,,-99.99,,2013-04-13 16:36:00,
2013-04-13 12:46:00,71.0,53.0,29.93,WNW,298,0.0,-999.0,53,-99.99,,,-99.99,,2013-04-13 16:46:00,
2013-04-13 12:54:00,73.0,54.0,29.93,NE,37,1.0,-999.0,52,-99.99,,,-99.99,,2013-04-13 16:54:00,
2013-04-13 13:08:00,73.0,54.0,29.93,NE,37,1.0,-999.0,52,-99.99,,,-99.99,,2013-04-13 17:08:00,
2013-04-13 13:21:00,73.0,54.0,29.93,NE,37,1.0,-999.0,52,-99.99,,,-99.99,,2013-04-13 17:21:00,
2013-04-13 13:38:00,73.0,53.0,29.93,South,180,0.0,-999.0,50,-99.99,,,-99.99,,2013-04-13 17:38:00,
2013-04-13 13:44:00,73.0,53.0,29.93,South,180,0.0,-999.0,50,-99.99,,,-99.99,,2013-04-13 17:44:00,
2013-04-13 13:59:00,73.0,55.0,29.92,NW,306,1.0,-999.0,53,-99.99,,,-99.99,,2013-04-13 17:59:00,
2013-04-13 14:07:00,75.0,53.0,29.92,WSW,242,1.0,-999.0,47,-99.99,,,-99.99,,2013-04-13 18:07:00,
2013-04-13 14:15:00,75.0,53.0,29.92,WSW,242,1.0,-999.0,47,-99.99,,,-99.99,,2013-04-13 18:15:00,
2013-04-13 14:24:00,75.0,55.0,29.91,NW,306,1.0,-999.0,49,-99.99,,,-99.99,,2013-04-13 18:24:00,
2013-04-13 14:33:00,76.0,57.0,29.91,West,279,1.0,-999.0,51,-99.99,,,-99.99,,2013-04-13 18:33:00,
2013-04-13 14:42:00,76.0,57.0,29.91,West,279,1.0,-999.0,51,-99.99,,,-99.99,,2013-04-13 18:42:00,
2013-04-13 14:52:00,76.0,54.0,29.91,SW,230,0.0,-999.0,47,-99.99,,,-99.99,,2013-04-13 18:52:00,
2013-04-13 15:03:00,76.0,55.0,29.91,ENE,57,0.0,-999.0,49,-99.99,,,-99.99,,2013-04-13 19:03:00,
2013-04-13 15:12:00,76.0,55.0,29.91,ENE,57,0.0,-999.0,49,-99.99,,,-99.99,,2013-04-13 19:12:00,
2013-04-13 15:22:00,78.0,55.0,29.90,NW,305,0.0,-999.0,45,-99.99,,,-99.99,,2013-04-13 19:22:00,
2013-04-13 15:32:00,78.0,55.0,29.89,NW,309,2.0,-999.0,45,-99.99,,,-99.99,,2013-04-13 19:32:00,
2013-04-13 15:42:00,78.0,55.0,29.89,NW,309,2.0,-999.0,45,-99.99,,,-99.99,,2013-04-13 19:42:00,
2013-04-13 15:52:00,78.0,56.0,29.89,WNW,300,1.0,-999.0,46,-99.99,,,-99.99,,2013-04-13 19:52:00,
2013-04-13 16:02:00,77.0,53.0,29.89,South,175,0.0,-999.0,44,-99.99,,,-99.99,,2013-04-13 20:02:00,
2013-04-13 16:12:00,77.0,53.0,29.89,South,175,0.0,-999.0,44,-99.99,,,-99.99,,2013-04-13 20:12:00,
2013-04-13 16:22:00,78.0,52.0,29.88,SSW,205,1.0,-999.0,40,-99.99,,,-99.99,,2013-04-13 20:22:00,
2013-04-13 16:32:00,79.0,55.0,29.88,West,281,1.0,-999.0,44,-99.99,,,-99.99,,2013-04-13 20:32:00,
2013-04-13 16:42:00,79.0,55.0,29.88,West,281,1.0,-999.0,44,-99.99,,,-99.99,,2013-04-13 20:42:00,
2013-04-13 16:52:00,78.0,54.0,29.88,WSW,253,1.0,-999.0,43,-99.99,,,-99.99,,2013-04-13 20:52:00,
2013-04-13 17:02:00,78.0,54.0,29.88,WSW,254,0.0,-999.0,43,-99.99,,,-99.99,,2013-04-13 21:02:00,
2013-04-13 17:12:00,78.0,54.0,29.88,WSW,254,0.0,-999.0,43,-99.99,,,-99.99,,2013-04-13 21:12:00,
2013-04-13 17:22:00,76.0,52.0,29.88,South,173,1.0,-999.0,44,-99.99,,,-99.99,,2013-04-13 21:22:00,
2013-04-13 17:33:00,78.0,54.0,29.88,WNW,285,0.0,-999.0,43,-99.99,,,-99.99,,2013-04-13 21:33:00,
2013-04-13 17:43:00,78.0,54.0,29.88,WNW,285,0.0,-999.0,43,-99.99,,,-99.99,,2013-04-13 21:43:00,
2013-04-13 17:52:00,77.0,53.0,29.88,NW,309,1.0,-999.0,44,-99.99,,,-99.99,,2013-04-13 21:52:00,
2013-04-13 18:03:00,76.0,52.0,29.88,NW,309,0.0,-999.0,44,-99.99,,,-99.99,,2013-04-13 22:03:00,
2013-04-13 18:13:00,76.0,52.0,29.88,NW,309,0.0,-999.0,44,-99.99,,,-99.99,,2013-04-13 22:13:00,
2013-04-13 18:22:00,75.0,53.0,29.88,NW,309,0.0,-999.0,47,-99.99,,,-99.99,,2013-04-13 22:22:00,
2013-04-13 18:33:00,75.0,56.0,29.88,SE,139,1.0,-999.0,51,-99.99,,,-99.99,,2013-04-13 22:33:00,
2013-04-13 18:42:00,75.0,56.0,29.88,SE,139,1.0,-999.0,51,-99.99,,,-99.99,,2013-04-13 22:42:00,
2013-04-13 18:52:00,74.0,56.0,29.88,SE,144,0.0,-999.0,54,-99.99,,,-99.99,,2013-04-13 22:52:00,
2013-04-13 19:02:00,73.0,56.0,29.89,SE,136,0.0,-999.0,56,-99.99,,,-99.99,,2013-04-13 23:02:00,
2013-04-13 19:12:00,72.0,56.0,29.89,SE,128,0.0,-999.0,57,-99.99,,,-99.99,,2013-04-13 23:12:00,
2013-04-13 19:22:00,72.0,56.0,29.89,SE,128,0.0,-999.0,57,-99.99,,,-99.99,,2013-04-13 23:22:00,
2013-04-13 19:33:00,71.0,56.0,29.90,SE,131,0.0,-999.0,60,-99.99,,,-99.99,,2013-04-13 23:33:00,
2013-04-13 19:42:00,71.0,56.0,29.90,SE,131,0.0,-999.0,60,-99.99,,,-99.99,,2013-04-13 23:42:00,
2013-04-13 19:52:00,70.0,56.0,29.90,SE,127,0.0,-999.0,61,-99.99,,,-99.99,,2013-04-13 23:52:00,
2013-04-13 20:03:00,69.0,56.0,29.91,SE,126,0.0,-999.0,63,-99.99,,,-99.99,,2013-04-14 00:03:00,
2013-04-13 20:12:00,69.0,56.0,29.91,SE,126,0.0,-999.0,63,-99.99,,,-99.99,,2013-04-14 00:12:00,
2013-04-13 20:22:00,67.0,55.0,29.92,SE,126,0.0,-999.0,65,-99.99,,,-99.99,,2013-04-14 00:22:00,
2013-04-13 20:32:00,66.0,55.0,29.92,SE,127,0.0,-999.0,68,-99.99,,,-99.99,,2013-04-14 00:32:00,
2013-04-13 20:42:00,66.0,55.0,29.92,SE,127,0.0,-999.0,68,-99.99,,,-99.99,,2013-04-14 00:42:00,
2013-04-13 20:52:00,65.0,55.0,29.93,SE,127,0.0,-999.0,70,-99.99,,,-99.99,,2013-04-14 00:52:00,
2013-04-13 21:02:00,64.0,56.0,29.93,SE,127,0.0,-999.0,75,-99.99,,,-99.99,,2013-04-14 01:02:00,
2013-04-13 21:12:00,64.0,56.0,29.93,SE,127,0.0,-999.0,75,-99.99,,,-99.99,,2013-04-14 01:12:00,
2013-04-13 21:22:00,63.0,56.0,29.94,SE,127,0.0,-999.0,77,-99.99,,,-99.99,,2013-04-14 01:22:00,
2013-04-13 21:32:00,62.0,55.0,29.95,SE,126,0.0,-999.0,78,-99.99,,,-99.99,,2013-04-14 01:32:00,
2013-04-13 21:42:00,62.0,55.0,29.95,SE,126,0.0,-999.0,78,-99.99,,,-99.99,,2013-04-14 01:42:00,
2013-04-13 21:53:00,62.0,56.0,29.96,SE,126,0.0,-999.0,80,-99.99,,,-99.99,,2013-04-14 01:53:00,
2013-04-13 22:02:00,61.0,55.0,29.97,SE,127,0.0,-999.0,81,-99.99,,,-99.99,,2013-04-14 02:02:00,
2013-04-13 22:12:00,60.0,55.0,29.97,SE,127,0.0,-999.0,84,-99.99,,,-99.99,,2013-04-14 02:12:00,
2013-04-13 22:22:00,60.0,55.0,29.97,SE,127,0.0,-999.0,84,-99.99,,,-99.99,,2013-04-14 02:22:00,
2013-04-13 22:32:00,59.0,54.0,29.97,SE,127,0.0,-999.0,85,-99.99,,,-99.99,,2013-04-14 02:32:00,
2013-04-13 22:42:00,59.0,54.0,29.97,SE,127,0.0,-999.0,85,-99.99,,,-99.99,,2013-04-14 02:42:00,
2013-04-13 22:52:00,59.0,55.0,29.97,SE,126,0.0,-999.0,87,-99.99,,,-99.99,,2013-04-14 02:52:00,
2013-04-13 23:03:00,58.0,55.0,29.97,SE,126,0.0,-999.0,89,-99.99,,,-99.99,,2013-04-14 03:03:00,
2013-04-13 23:12:00,58.0,55.0,29.97,SE,126,0.0,-999.0,89,-99.99,,,-99.99,,2013-04-14 03:12:00,
2013-04-13 23:22:00,57.0,54.0,29.97,SE,127,0.0,-999.0,90,-99.99,,,-99.99,,2013-04-14 03:22:00,
2013-04-13 23:33:00,57.0,54.0,29.97,SE,127,0.0,-999.0,91,-99.99,,,-99.99,,2013-04-14 03:33:00,
2013-04-13 23:42:00,57.0,54.0,29.97,SE,127,0.0,-999.0,91,-99.99,,,-99.99,,2013-04-14 03:42:00,
2013-04-13 23:53:00,57.0,55.0,29.97,SE,127,0.0,-999.0,92,-99.99,,,-99.99,,2013-04-14 03:53:00,